Airfield :
LOGIN :

Register | Disclaimer

   EN    FR    IT 

 










Legend :    VFR   Marginal VFR   IFR   Intensive IFR   Very Intensive IFR
Visi :
Ceiling :
>= 8 km
>= 3000ft
5 to 8 km
1000 to 3000 ft
1500m to 5 km
500 to 1000 ft
800 to 1500m
200 to 500 ft
< 800m
< 200 ft
Symbols :   Thunderstorms  Fog  Heavy snow  Heavy precipitations  Wind > 20 kt
SIGMETs :     Misc.  Thunderstorms  Icing  Turbulence  Mountain Waves  Volcanic Ashes







- Airport Elevation : 788 ft
- IATA code : DCM
- Download approach charts


LFCK - Castres-Mazamet

CURRENT METAR :
  • 171800Z AUTO 12023KT CAVOK 18/14 Q1018 TEMPO 12025G38KT

EXPIRED METARs :
  • 171730Z AUTO 12025G37KT CAVOK 18/13 Q1018 NOSIG
  • 171700Z AUTO 12024KT CAVOK 19/13 Q1018 TEMPO 12025G38KT
  • 171630Z AUTO 12023KT CAVOK 19/13 Q1018 TEMPO 12025G38KT
  • 171600Z AUTO 12023G34KT CAVOK 19/13 Q1018 NOSIG
  • 171530Z AUTO 12024G37KT CAVOK 20/13 Q1019 NOSIG

TAF TAF LFCK
Valid from the 17 at 18:00 until the 18 at 03:00 UTC


171700Z 1718/1803 12020G30KT CAVOK
TEMPO 1718/1803 12025G38KT
No reported NOTAMs for that airfield.



MET'MAP, your aeronautical weather chart ! - Copyright ORBIFLY December 2007 - Disclaimer

ORBIFLY MET'MAP TEAM :

Programming & Development : Alexandra Zaïnal
Concept & Development : Baudouin d'Aumeries
Co-Development & Prog : Marc-Olivier Méhu
Technical & hardware support : Manuel Goepfert

Contact : metmap@orbifly.com




SOURCES & CREDITS :

   NOAA